createdAt,value
2023-04-27T00:01:59.795Z,101732.22
2023-04-27T00:07:02.567Z,101743.34
2023-04-27T00:12:06.304Z,101512.75
2023-04-27T00:17:10.290Z,101739.38
2023-04-27T00:22:16.346Z,101761.56
2023-04-27T00:27:19.229Z,101747.31
2023-04-27T00:32:23.850Z,101734.09
2023-04-27T00:37:26.738Z,101744.84
2023-04-27T00:42:29.798Z,101741.63
2023-04-27T00:47:34.605Z,101557.38
2023-04-27T00:52:39.318Z,101757.31
2023-04-27T00:57:42.121Z,101624.44
2023-04-27T01:02:49.257Z,101758.44
2023-04-27T01:07:53.547Z,101755.13
2023-04-27T01:12:56.115Z,101752.88
2023-04-27T01:18:01.380Z,101757.94
2023-04-27T01:23:04.070Z,101762.28
2023-04-27T01:28:07.942Z,101761.16
2023-04-27T01:33:13.185Z,101753.84
2023-04-27T01:38:16.086Z,101767.19
2023-04-27T01:43:21.191Z,101761.38
2023-04-27T01:48:24.065Z,101769.38
2023-04-27T01:53:26.707Z,101764.25
2023-04-27T01:58:31.418Z,101785.44
2023-04-27T02:03:34.203Z,101787.00
2023-04-27T02:08:37.104Z,101782.84
2023-04-27T02:13:41.015Z,101768.38
2023-04-27T02:18:44.528Z,101769.28
2023-04-27T02:23:47.101Z,101769.94
2023-04-27T02:28:52.104Z,101773.22
2023-04-27T02:33:56.326Z,101766.50
2023-04-27T02:39:01.487Z,101772.34
2023-04-27T02:44:05.640Z,101768.66
2023-04-27T02:49:08.357Z,101765.16
2023-04-27T02:54:11.479Z,101765.81
2023-04-27T02:59:15.903Z,101759.09
2023-04-27T03:04:19.024Z,101744.38
2023-04-27T03:09:21.810Z,101738.25
2023-04-27T03:14:25.676Z,101739.84
2023-04-27T03:19:28.287Z,101741.41
2023-04-27T03:24:33.315Z,101735.78
2023-04-27T03:29:37.271Z,101752.97
2023-04-27T03:34:41.276Z,101756.34
2023-04-27T03:39:44.848Z,101750.91
2023-04-27T03:44:49.287Z,101754.25
2023-04-27T03:49:52.649Z,101756.75
2023-04-27T03:54:55.649Z,101756.66
2023-04-27T03:59:59.637Z,101771.22
2023-04-27T04:05:02.356Z,101773.53
2023-04-27T04:10:05.547Z,101776.06
2023-04-27T04:15:10.123Z,101776.19
2023-04-27T04:20:13.615Z,101772.81
2023-04-27T04:25:16.524Z,101776.88
2023-04-27T04:30:20.497Z,101780.22
2023-04-27T04:35:23.426Z,101784.72
2023-04-27T04:40:26.623Z,101788.72
2023-04-27T04:45:31.010Z,101787.00
2023-04-27T04:50:34.061Z,101786.03
2023-04-27T04:55:36.802Z,101696.53
2023-04-27T05:00:41.902Z,101798.13
2023-04-27T05:05:44.450Z,101808.53
2023-04-27T05:10:50.433Z,101810.31
2023-04-27T05:15:54.530Z,101815.56
2023-04-27T05:20:57.088Z,101822.44
2023-04-27T05:25:59.661Z,101828.31
2023-04-27T05:31:03.533Z,101752.59
2023-04-27T05:36:06.583Z,101826.59
2023-04-27T05:41:12.637Z,101826.81
2023-04-27T05:46:17.543Z,101825.44
2023-04-27T05:51:20.127Z,101827.50
2023-04-27T05:56:23.491Z,101816.13
2023-04-27T06:01:27.421Z,101851.16
2023-04-27T06:06:33.062Z,101836.78
2023-04-27T06:11:35.678Z,101837.06
2023-04-27T06:16:40.487Z,101830.59
2023-04-27T06:21:43.539Z,101836.22
2023-04-27T06:26:46.108Z,101834.22
2023-04-27T06:39:38.385Z,101845.34
2023-04-27T06:44:42.294Z,101842.91
2023-04-27T06:49:47.459Z,101842.50
2023-04-27T06:54:51.624Z,101824.78
2023-04-27T06:59:55.581Z,101832.13
2023-04-27T07:04:58.239Z,101828.75
2023-04-27T07:10:00.836Z,101827.56
2023-04-27T07:15:06.533Z,101833.00
2023-04-27T07:20:10.105Z,101785.13
2023-04-27T07:25:13.576Z,101803.47
2023-04-27T07:30:17.799Z,101829.88
2023-04-27T07:35:20.360Z,101829.28
2023-04-27T07:40:24.171Z,101811.00
2023-04-27T07:45:32.277Z,101830.84
2023-04-27T07:50:35.387Z,101831.06
2023-04-27T07:55:37.954Z,101821.84
2023-04-27T08:00:41.856Z,101828.41
2023-04-27T08:05:44.757Z,101822.84
2023-04-27T08:10:47.631Z,101816.19
2023-04-27T08:15:51.835Z,101815.63
2023-04-27T08:20:54.401Z,101809.72
2023-04-27T08:25:57.384Z,101805.88
2023-04-27T08:31:01.814Z,101798.25
2023-04-27T08:36:04.924Z,101802.78
2023-04-27T08:41:20.825Z,101799.28
2023-04-27T08:46:27.395Z,101796.75
2023-04-27T08:51:30.187Z,101804.81
2023-04-27T08:56:33.233Z,101808.00
2023-04-27T09:01:37.500Z,101801.81
2023-04-27T09:06:40.190Z,101793.25
2023-04-27T09:11:42.735Z,101781.22
2023-04-27T09:16:54.829Z,101783.38
2023-04-27T09:22:08.472Z,101789.03
2023-04-27T09:27:20.958Z,101784.50
2023-04-27T09:32:24.880Z,101790.06
2023-04-27T09:37:28.073Z,101783.31
2023-04-27T09:42:30.819Z,101774.94
2023-04-27T09:47:35.043Z,101776.88
2023-04-27T09:52:37.727Z,101763.22
2023-04-27T09:57:52.489Z,101761.25
2023-04-27T10:03:09.085Z,101762.00
2023-04-27T10:08:12.402Z,101755.56
2023-04-27T10:13:23.243Z,101751.00
2023-04-27T10:18:31.741Z,101747.41
2023-04-27T10:23:34.290Z,101730.25
2023-04-27T10:28:40.002Z,101735.38
2023-04-27T10:33:44.555Z,101738.81
2023-04-27T10:38:47.164Z,101715.94
2023-04-27T10:43:51.281Z,101730.72
2023-04-27T10:48:56.758Z,101726.19
2023-04-27T10:53:59.868Z,101716.78
2023-04-27T10:59:04.858Z,101714.06
2023-04-27T11:04:08.831Z,101718.34
2023-04-27T11:09:12.401Z,101723.84
2023-04-27T11:14:20.529Z,101716.81
2023-04-27T11:19:24.415Z,101715.22
2023-04-27T11:24:27.005Z,101713.59
2023-04-27T11:29:38.917Z,101697.56
2023-04-27T11:34:50.707Z,101708.75
2023-04-27T11:39:54.166Z,101695.38
2023-04-27T11:44:58.885Z,101693.25
2023-04-27T11:50:06.500Z,101675.31
2023-04-27T11:55:15.621Z,101683.41
2023-04-27T12:00:19.369Z,101683.97
2023-04-27T12:05:23.416Z,101675.19
2023-04-27T12:10:26.130Z,101678.69
2023-04-27T12:15:28.705Z,101664.31
2023-04-27T12:20:32.706Z,101668.25
2023-04-27T12:25:36.279Z,101651.84
2023-04-27T12:30:38.895Z,101661.00
2023-04-27T12:35:42.840Z,101654.50
2023-04-27T12:40:45.553Z,101659.63
2023-04-27T12:45:48.104Z,101624.97
2023-04-27T12:50:52.411Z,101646.41
2023-04-27T12:55:55.489Z,101636.13
2023-04-27T13:01:02.359Z,101642.72
2023-04-27T13:06:09.050Z,101646.81
2023-04-27T13:11:11.660Z,101643.84
2023-04-27T13:16:15.785Z,101628.00
2023-04-27T13:21:22.604Z,101646.13
2023-04-27T13:26:25.745Z,101636.34
2023-04-27T13:31:28.723Z,101632.28
2023-04-27T13:36:32.725Z,101621.50
2023-04-27T13:41:35.758Z,101619.69
2023-04-27T13:46:38.323Z,101594.47
2023-04-27T13:51:42.438Z,101618.59
2023-04-27T13:56:45.838Z,101614.44
2023-04-27T14:01:48.778Z,101608.56
2023-04-27T14:06:52.655Z,101591.72
2023-04-27T14:11:57.375Z,101596.38
2023-04-27T14:17:00.160Z,101579.09
2023-04-27T14:22:04.588Z,101580.66
2023-04-27T14:27:07.387Z,101561.84
2023-04-27T14:32:10.182Z,101569.81
2023-04-27T14:37:14.193Z,101554.47
2023-04-27T14:42:16.778Z,101551.25
2023-04-27T14:47:19.614Z,101540.72
2023-04-27T14:52:23.652Z,101532.16
2023-04-27T14:57:27.052Z,101523.72
2023-04-27T15:02:31.839Z,101520.66
2023-04-27T15:07:37.737Z,101523.75
2023-04-27T15:12:40.690Z,101523.00
2023-04-27T15:17:43.223Z,101530.06
2023-04-27T15:22:47.452Z,101517.31
2023-04-27T15:27:50.224Z,101509.31
2023-04-27T15:32:52.798Z,101513.19
2023-04-27T15:37:56.683Z,101504.81
2023-04-27T15:42:59.521Z,101498.75
2023-04-27T15:48:02.210Z,101493.31
2023-04-27T15:53:06.175Z,101474.81
2023-04-27T15:58:08.914Z,101489.25
2023-04-27T16:03:14.013Z,101465.47
2023-04-27T16:08:18.132Z,101461.97
2023-04-27T16:13:20.679Z,101469.44
2023-04-27T16:18:23.679Z,101453.16
2023-04-27T16:23:27.624Z,101446.81
2023-04-27T16:28:31.881Z,101437.09
2023-04-27T16:33:34.503Z,101442.16
2023-04-27T16:38:39.411Z,101447.00
2023-04-27T16:43:42.488Z,101441.63
2023-04-27T16:48:45.229Z,101431.75
2023-04-27T16:53:50.544Z,101426.66
2023-04-27T16:58:53.650Z,101418.47
2023-04-27T17:03:56.946Z,101318.34
2023-04-27T17:09:03.006Z,101408.63
2023-04-27T17:14:05.608Z,101402.53
2023-04-27T17:19:11.317Z,101395.94
2023-04-27T17:24:16.370Z,101394.59
2023-04-27T17:29:18.993Z,101396.13
2023-04-27T17:34:24.439Z,101388.41
2023-04-27T17:39:33.570Z,101380.34
2023-04-27T17:44:39.231Z,101384.63
2023-04-27T17:49:42.125Z,101314.59
2023-04-27T17:54:46.062Z,101378.16
2023-04-27T17:59:50.023Z,101378.94
2023-04-27T18:04:55.642Z,101371.50
2023-04-27T18:10:00.829Z,101349.94
2023-04-27T18:15:05.554Z,101368.31
2023-04-27T18:20:10.980Z,101373.88
2023-04-27T18:25:14.948Z,101371.59
2023-04-27T18:30:17.805Z,101375.63
2023-04-27T18:35:20.434Z,101372.44
2023-04-27T18:40:25.832Z,101378.38
2023-04-27T18:45:28.625Z,101378.59
2023-04-27T18:50:31.811Z,101376.44
2023-04-27T18:55:35.854Z,101360.06
2023-04-27T19:00:39.742Z,101372.81
2023-04-27T19:05:43.045Z,101364.09
2023-04-27T19:10:47.649Z,101363.00
2023-04-27T19:15:50.380Z,101364.72
2023-04-27T19:20:52.994Z,101374.56
2023-04-27T19:26:02.743Z,101381.03
2023-04-27T19:31:12.625Z,101367.41
2023-04-27T19:36:15.673Z,101370.94
2023-04-27T19:41:19.565Z,101364.97
2023-04-27T19:46:22.153Z,101362.81
2023-04-27T19:51:24.924Z,101378.25
2023-04-27T19:56:28.786Z,101365.47
2023-04-27T20:01:31.725Z,101336.75
2023-04-27T20:06:34.491Z,101362.00
2023-04-27T20:11:38.562Z,101359.69
2023-04-27T20:16:41.641Z,101344.59
2023-04-27T20:22:11.744Z,101340.75
2023-04-27T20:27:29.253Z,101335.44
2023-04-27T20:32:31.877Z,101337.34
2023-04-27T20:37:35.506Z,101318.34
2023-04-27T20:42:39.447Z,101310.88
2023-04-27T20:47:42.048Z,101316.72
2023-04-27T20:52:44.825Z,101313.75
2023-04-27T20:57:49.042Z,101300.16
2023-04-27T21:02:52.041Z,101301.66
2023-04-27T21:07:54.942Z,101286.97
2023-04-27T21:13:00.245Z,101287.81
2023-04-27T21:18:05.040Z,101273.16
2023-04-27T21:23:09.231Z,101264.50
2023-04-27T21:28:13.933Z,101248.13
2023-04-27T21:33:16.580Z,101247.06
2023-04-27T21:38:19.118Z,101252.69
2023-04-27T21:43:23.024Z,101236.63
2023-04-27T21:48:25.753Z,101220.72
2023-04-27T21:53:28.340Z,101210.22
2023-04-27T21:58:32.230Z,101195.03
2023-04-27T22:03:34.887Z,101190.69
2023-04-27T22:08:37.546Z,101190.75
2023-04-27T22:13:41.811Z,101174.94
2023-04-27T22:18:44.440Z,101173.34
2023-04-27T22:23:48.308Z,101163.13
2023-04-27T22:28:52.422Z,101159.53
2023-04-27T22:33:55.012Z,101156.22
2023-04-27T22:38:57.568Z,101159.97
2023-04-27T22:44:01.472Z,101143.25
2023-04-27T22:49:04.426Z,101150.41
2023-04-27T22:54:06.957Z,101142.31
2023-04-27T22:59:11.071Z,101147.75
2023-04-27T23:04:13.990Z,101142.00
2023-04-27T23:09:17.076Z,101137.53
2023-04-27T23:14:20.944Z,101135.00
2023-04-27T23:19:23.569Z,101136.03
2023-04-27T23:24:26.097Z,101115.13
2023-04-27T23:29:31.293Z,101131.25
2023-04-27T23:34:33.813Z,101113.06
2023-04-27T23:39:36.387Z,101112.34
2023-04-27T23:44:40.322Z,101121.34
2023-04-27T23:49:44.096Z,101113.16
2023-04-27T23:54:46.616Z,101096.78
2023-04-27T23:59:50.477Z,101088.94
